createdAt,value
2022-12-09T00:11:37.087Z,2.90
2022-12-09T00:26:40.536Z,2.90
2022-12-09T00:41:42.636Z,3.00
2022-12-09T00:56:44.563Z,2.90
2022-12-09T01:11:46.530Z,3.00
2022-12-09T01:26:48.844Z,2.80
2022-12-09T01:41:51.549Z,2.90
2022-12-09T01:56:54.115Z,2.70
2022-12-09T02:12:02.228Z,2.80
2022-12-09T02:27:17.710Z,2.90
2022-12-09T02:42:23.004Z,3.00
2022-12-09T02:57:29.089Z,3.10
2022-12-09T03:12:33.191Z,3.00
2022-12-09T03:27:52.365Z,2.80
2022-12-09T03:43:15.811Z,2.70
2022-12-09T03:58:17.976Z,2.70
2022-12-09T04:13:19.911Z,2.40
2022-12-09T04:28:21.818Z,2.50
2022-12-09T04:43:24.073Z,2.60
2022-12-09T04:58:26.197Z,2.50
2022-12-09T05:13:28.591Z,2.20
2022-12-09T05:28:31.846Z,1.80
2022-12-09T05:43:35.095Z,1.60
2022-12-09T05:58:37.466Z,1.50
2022-12-09T06:13:39.984Z,1.60
2022-12-09T06:28:42.281Z,1.10
2022-12-09T06:43:44.691Z,1.30
2022-12-09T06:58:47.656Z,1.80
2022-12-09T07:13:50.919Z,1.80
2022-12-09T07:28:53.159Z,1.80
2022-12-09T07:43:55.316Z,2.00
2022-12-09T07:58:58.296Z,1.60
2022-12-09T08:14:08.872Z,1.90
2022-12-09T08:29:14.309Z,1.90
2022-12-09T08:44:19.614Z,2.90
2022-12-09T08:59:22.253Z,3.30
2022-12-09T09:14:24.359Z,3.30
2022-12-09T09:29:26.468Z,3.40
2022-12-09T09:44:31.152Z,4.20
2022-12-09T10:00:00.722Z,4.00
2022-12-09T10:15:14.240Z,4.90
2022-12-09T10:30:20.746Z,4.80
2022-12-09T10:45:23.105Z,4.90
2022-12-09T11:00:29.662Z,6.40
2022-12-09T11:15:50.349Z,5.50
2022-12-09T11:31:27.053Z,5.50
2022-12-09T11:46:14.156Z,4.90
2022-12-09T12:01:44.822Z,4.70
2022-12-09T12:16:58.930Z,4.70
2022-12-09T12:32:19.574Z,4.50
2022-12-09T12:47:39.050Z,4.50
2022-12-09T13:03:16.898Z,4.40
2022-12-09T13:18:26.468Z,4.40
2022-12-09T13:33:41.682Z,4.30
2022-12-09T13:48:44.869Z,4.30
2022-12-09T14:03:49.800Z,4.10
2022-12-09T14:18:52.723Z,4.10
2022-12-09T14:33:54.741Z,4.10
2022-12-09T14:49:12.478Z,3.60
2022-12-09T15:04:25.177Z,3.60
2022-12-09T15:19:59.785Z,3.50
2022-12-09T15:34:51.863Z,3.30
2022-12-09T15:50:04.006Z,3.20
2022-12-09T16:05:09.160Z,3.20
2022-12-09T16:20:45.636Z,3.00
2022-12-09T16:36:02.380Z,3.00
2022-12-09T16:51:14.524Z,2.90
2022-12-09T17:06:18.482Z,2.80
2022-12-09T17:21:20.443Z,2.70
2022-12-09T17:36:22.383Z,2.60
2022-12-09T17:51:24.326Z,2.60
2022-12-09T18:06:27.700Z,2.60
2022-12-09T18:21:29.588Z,2.50
2022-12-09T18:36:31.565Z,2.50
2022-12-09T18:51:33.860Z,2.60
2022-12-09T19:06:38.893Z,2.40
2022-12-09T19:21:40.925Z,2.40
2022-12-09T19:36:44.018Z,2.50
2022-12-09T19:51:47.226Z,2.30
2022-12-09T20:06:49.582Z,2.20
2022-12-09T20:21:51.482Z,2.10
2022-12-09T20:36:53.574Z,2.20
2022-12-09T20:51:55.893Z,2.30
2022-12-09T21:06:57.803Z,2.20
2022-12-09T21:21:59.890Z,2.20
2022-12-09T21:37:02.234Z,2.20
2022-12-09T21:52:06.702Z,2.10
2022-12-09T22:07:08.622Z,2.10
2022-12-09T22:22:10.957Z,2.20
2022-12-09T22:37:42.082Z,2.20
2022-12-09T22:52:34.848Z,2.20
2022-12-09T23:07:36.758Z,2.20
2022-12-09T23:22:38.670Z,2.30
2022-12-09T23:37:40.593Z,2.30
2022-12-09T23:52:42.507Z,2.20
